Skip Navigation Links Skip Navigation Links

Current Weather

Danville Regional, Danville, Va.

For information only: do not use for flight planning or navigation.
Latest weather
Observation time Friday, May 25, 2018 8:13 AM EDT
Local time Friday, May 25, 2018 8:34 AM EDT
Flight conditions Instrument Meteorological Conditions
Winds
Wind direction variable
Wind speed 3 mph
Visibility 10 mi.
Sky condition
Ceiling 500 ft. broken clouds
Cloud layer broken clouds 500 ft.
Cloud layer overcast 1,500 ft.
Temperature 69°F
Dewpoint 68°F
Altimeter 30.14 in.Hg
Derived measurements
Relative humidity 96%
Density altitude 1292 ft.
Remarks
Fully automated report.
Automated weather observing station with precipitation discriminator.
Ceiling.
METAR KDAN 251213Z AUTO VRB03KT 10SM BKN005 OVC015 21/20 A3014 RMK AO2 CIG 005V010 T02060200

Settings

Location code

InnerDrive.Weather 4.0.6615.0 Release CLR 4.0.30319.42000
Copyright ©2018 Inner Drive Technology. All rights reserved. Portions Copyright ©1986-2018 David Braverman.

Find weather

Site navigation


Skip Navigation Links

Place info

Page info

PayPal - The safer, easier way to pay online!

Return home.

Copyright ©2018 Inner Drive Technology. Purveyors of fine, hand-crafted computer software. Page printed 2018-05-25T12:34:47 UTC.